createdAt,value
2023-02-11T09:09:25.875Z,20.19
2023-02-11T09:10:25.869Z,20.18
2023-02-11T09:12:25.876Z,20.20
2023-02-11T09:13:25.881Z,20.20
2023-02-11T09:14:25.885Z,20.20
2023-02-11T09:15:25.897Z,20.19
2023-02-11T09:16:25.978Z,20.18
2023-02-11T09:17:25.907Z,20.16
2023-02-11T09:18:25.912Z,20.22
2023-02-11T09:19:25.936Z,20.20
2023-02-11T09:20:25.935Z,20.19
2023-02-11T09:21:25.947Z,20.18
2023-02-11T09:23:25.938Z,20.20
2023-02-11T09:24:26.019Z,20.17
2023-02-11T09:25:25.965Z,20.20
2023-02-11T09:26:25.952Z,20.21
2023-02-11T09:27:25.989Z,20.19
2023-02-11T09:28:26.088Z,20.19
2023-02-11T09:29:26.014Z,20.19
2023-02-11T09:30:25.987Z,20.19
2023-02-11T09:31:26.113Z,20.18
2023-02-11T09:32:25.998Z,20.22
2023-02-11T09:33:25.994Z,20.22
2023-02-11T09:34:26.007Z,20.23
2023-02-11T09:35:26.014Z,20.19
2023-02-11T09:36:26.014Z,20.19
2023-02-11T09:37:26.025Z,20.22
2023-02-11T09:38:26.016Z,20.25
2023-02-11T09:39:26.022Z,20.22
2023-02-11T09:40:26.025Z,20.23
2023-02-11T09:41:26.033Z,20.23
2023-02-11T09:42:26.034Z,20.28
2023-02-11T09:43:26.070Z,20.24
2023-02-11T09:44:26.056Z,20.28
2023-02-11T09:45:26.085Z,20.23
2023-02-11T09:46:26.128Z,20.24
2023-02-11T09:47:26.065Z,20.21
2023-02-11T09:48:26.071Z,20.25
2023-02-11T09:49:26.067Z,20.22
2023-02-11T09:50:26.072Z,20.20
2023-02-11T09:51:26.078Z,20.22
2023-02-11T09:52:26.084Z,20.23
2023-02-11T09:53:26.084Z,20.26
2023-02-11T09:54:26.084Z,20.26
2023-02-11T09:55:26.091Z,20.30
2023-02-11T09:56:26.101Z,20.29
2023-02-11T09:57:28.956Z,20.32
2023-02-11T09:58:26.114Z,20.30
2023-02-11T09:59:26.156Z,20.30
2023-02-11T10:00:26.125Z,20.28
2023-02-11T10:01:26.208Z,20.29
2023-02-11T10:02:26.131Z,20.30
2023-02-11T10:03:26.137Z,20.30
2023-02-11T10:04:26.218Z,20.28
2023-02-11T10:05:26.160Z,20.26
2023-02-11T10:06:26.156Z,20.27
2023-02-11T10:07:26.146Z,20.28
2023-02-11T10:08:26.147Z,20.30
2023-02-11T10:09:26.153Z,20.29
2023-02-11T10:10:26.162Z,20.27
2023-02-11T10:11:31.881Z,20.29
2023-02-11T10:12:26.161Z,20.27
2023-02-11T10:13:26.166Z,20.28
2023-02-11T10:14:26.165Z,20.28
2023-02-11T10:15:26.252Z,20.24
2023-02-11T10:16:26.662Z,20.23
2023-02-11T10:17:26.166Z,20.27
2023-02-11T10:18:26.157Z,20.27
2023-02-11T10:19:26.168Z,20.28
2023-02-11T10:20:26.169Z,20.30
2023-02-11T10:21:26.170Z,20.29
2023-02-11T10:22:26.185Z,20.30
2023-02-11T10:23:26.179Z,20.29
2023-02-11T10:24:26.179Z,20.29
2023-02-11T10:25:26.196Z,20.30
2023-02-11T10:26:26.187Z,20.29
2023-02-11T10:27:26.199Z,20.32
2023-02-11T10:28:26.320Z,20.32
2023-02-11T10:29:26.190Z,20.34
2023-02-11T10:30:26.224Z,20.35
2023-02-11T10:31:26.358Z,20.33
2023-02-11T10:32:26.206Z,20.33
2023-02-11T10:33:26.212Z,20.33
2023-02-11T10:34:26.214Z,20.30
2023-02-11T10:35:26.215Z,20.31
2023-02-11T10:36:26.222Z,20.29
2023-02-11T10:37:26.224Z,20.33
2023-02-11T10:38:26.230Z,20.31
2023-02-11T10:39:26.237Z,20.32
2023-02-11T10:40:26.352Z,20.31
2023-02-11T10:41:26.236Z,20.33
2023-02-11T10:42:26.237Z,20.31
2023-02-11T10:43:26.253Z,20.31
2023-02-11T10:44:26.261Z,20.31
2023-02-11T10:45:26.258Z,20.32
2023-02-11T10:46:26.283Z,20.33
2023-02-11T10:47:26.300Z,20.32
2023-02-11T10:48:26.280Z,20.34
2023-02-11T10:49:26.276Z,20.35
2023-02-11T10:50:26.274Z,20.35
2023-02-11T10:51:26.280Z,20.34
2023-02-11T10:52:27.209Z,20.34
2023-02-11T10:53:26.289Z,20.32
2023-02-11T10:54:26.294Z,20.34
2023-02-11T10:55:26.296Z,20.32
2023-02-11T10:56:26.296Z,20.33
2023-02-11T10:57:26.325Z,20.32
2023-02-11T10:58:26.307Z,20.34
2023-02-11T10:59:26.319Z,20.33
2023-02-11T11:00:26.322Z,20.33
2023-02-11T11:01:26.391Z,20.31
2023-02-11T11:02:26.324Z,20.31
2023-02-11T11:03:26.349Z,20.31
2023-02-11T11:04:26.384Z,20.35
2023-02-11T11:05:26.341Z,20.35
2023-02-11T11:06:26.337Z,20.33
2023-02-11T11:07:26.356Z,20.35
2023-02-11T11:08:27.268Z,20.35
2023-02-11T11:09:26.354Z,20.35
2023-02-11T11:10:26.367Z,20.33
2023-02-11T11:11:26.399Z,20.35
2023-02-11T11:12:26.368Z,20.31
2023-02-11T11:13:26.351Z,20.33
2023-02-11T11:14:26.363Z,20.32
2023-02-11T11:15:26.376Z,20.32
2023-02-11T11:16:26.418Z,20.29
2023-02-11T11:17:26.380Z,20.32
2023-02-11T11:18:26.349Z,20.33
2023-02-11T11:19:26.385Z,20.33
2023-02-11T11:20:26.365Z,20.34
2023-02-11T11:21:26.355Z,20.35
2023-02-11T11:22:26.388Z,20.36
2023-02-11T11:23:26.366Z,20.40
2023-02-11T11:24:27.949Z,20.34
2023-02-11T11:25:27.446Z,20.36
2023-02-11T11:26:26.507Z,20.34
2023-02-11T11:27:26.528Z,20.33
2023-02-11T11:28:26.637Z,20.35
2023-02-11T11:29:26.522Z,20.35
2023-02-11T11:30:26.528Z,20.34
2023-02-11T11:31:26.698Z,20.33
2023-02-11T11:32:26.559Z,20.30
2023-02-11T11:33:26.527Z,20.27
2023-02-11T11:34:26.528Z,20.29
2023-02-11T11:35:26.555Z,20.30
2023-02-11T11:36:26.536Z,20.30
2023-02-11T11:37:26.574Z,20.35
2023-02-11T11:38:26.533Z,20.35
2023-02-11T11:39:26.532Z,20.36
2023-02-11T11:40:26.532Z,20.37
2023-02-11T11:41:26.531Z,20.38
2023-02-11T11:42:26.545Z,20.36
2023-02-11T11:43:26.564Z,20.40
2023-02-11T11:44:26.546Z,20.36
2023-02-11T11:45:26.544Z,20.36
2023-02-11T11:46:26.696Z,20.37
2023-02-11T11:47:26.568Z,20.36
2023-02-11T11:48:26.545Z,20.38
2023-02-11T11:49:26.542Z,20.37
2023-02-11T11:50:26.547Z,20.36
2023-02-11T11:51:26.622Z,20.39
2023-02-11T11:52:26.565Z,20.37
2023-02-11T11:53:26.564Z,20.37
2023-02-11T11:54:26.559Z,20.39
2023-02-11T11:55:27.494Z,20.38
2023-02-11T11:56:26.568Z,20.36
2023-02-11T11:57:26.544Z,20.42
2023-02-11T11:58:26.560Z,20.41
2023-02-11T11:59:26.550Z,20.40
2023-02-11T12:00:26.556Z,20.39
2023-02-11T12:01:26.553Z,20.39
2023-02-11T12:02:26.683Z,20.41
2023-02-11T12:03:26.703Z,20.41
2023-02-11T12:04:26.560Z,20.39
2023-02-11T12:05:26.563Z,20.39
2023-02-11T12:06:26.561Z,20.40
2023-02-11T12:07:26.582Z,20.39
2023-02-11T12:08:26.558Z,20.39
2023-02-11T12:09:26.562Z,20.37
2023-02-11T12:10:26.570Z,20.38
2023-02-11T12:11:26.560Z,20.37
2023-02-11T12:12:26.570Z,20.37
2023-02-11T12:13:26.582Z,20.37
2023-02-11T12:14:26.599Z,20.39
2023-02-11T12:15:26.569Z,20.37
2023-02-11T12:16:26.657Z,20.37
2023-02-11T12:17:26.581Z,20.38
2023-02-11T12:18:26.571Z,20.36
2023-02-11T12:19:26.574Z,20.37
2023-02-11T12:20:26.591Z,20.40
2023-02-11T12:21:26.584Z,20.39
2023-02-11T12:22:26.596Z,20.40
2023-02-11T12:23:26.615Z,20.39
2023-02-11T12:24:26.592Z,20.41
2023-02-11T12:25:26.593Z,20.41
2023-02-11T12:26:26.601Z,20.42
2023-02-11T12:27:26.602Z,20.43
2023-02-11T12:28:26.667Z,20.39
2023-02-11T12:29:26.603Z,20.43
2023-02-11T12:30:26.614Z,20.40
2023-02-11T12:31:26.806Z,20.45
2023-02-11T12:32:26.650Z,20.44
2023-02-11T12:33:26.626Z,20.44
2023-02-11T12:34:26.645Z,20.46
2023-02-11T12:35:26.669Z,20.42
2023-02-11T12:36:26.741Z,20.43
2023-02-11T12:37:26.644Z,20.46
2023-02-11T12:38:26.648Z,20.44
2023-02-11T12:39:26.671Z,20.42
2023-02-11T12:40:26.674Z,20.42
2023-02-11T12:41:26.640Z,20.41
2023-02-11T12:42:26.658Z,20.40
2023-02-11T12:43:26.661Z,20.42
2023-02-11T12:44:26.666Z,20.40
2023-02-11T12:45:26.729Z,20.44
2023-02-11T12:46:26.668Z,20.45
2023-02-11T12:47:26.673Z,20.45
2023-02-11T12:48:26.675Z,20.45
2023-02-11T12:49:26.680Z,20.47
2023-02-11T12:50:26.686Z,20.45
2023-02-11T12:51:26.687Z,20.44
2023-02-11T12:52:26.688Z,20.43
2023-02-11T12:53:26.691Z,20.42
2023-02-11T12:54:26.707Z,20.43
2023-02-11T12:55:26.729Z,20.40
2023-02-11T12:56:26.699Z,20.43
2023-02-11T12:57:26.735Z,20.42
2023-02-11T12:58:35.656Z,20.46
2023-02-11T12:59:26.704Z,20.45
2023-02-11T13:00:26.692Z,20.43
2023-02-11T13:01:26.837Z,20.46
2023-02-11T13:02:26.778Z,20.42
2023-02-11T13:03:26.702Z,20.42
2023-02-11T13:04:26.725Z,20.46
2023-02-11T13:05:26.733Z,20.45
2023-02-11T13:06:26.715Z,20.47
2023-02-11T13:07:26.716Z,20.44
2023-02-11T13:08:26.737Z,20.45
2023-02-11T13:09:26.739Z,20.46
2023-02-11T13:10:26.739Z,20.43
2023-02-11T13:11:26.767Z,20.43
2023-02-11T13:12:26.741Z,20.46
2023-02-11T13:13:26.754Z,20.42
2023-02-11T13:14:26.754Z,20.40
2023-02-11T13:15:26.793Z,20.40
2023-02-11T13:16:26.775Z,20.44
2023-02-11T13:17:26.750Z,20.43
2023-02-11T13:18:26.763Z,20.45
2023-02-11T13:19:26.753Z,20.44
2023-02-11T13:20:26.754Z,20.46
2023-02-11T13:21:26.755Z,20.47
2023-02-11T13:22:26.793Z,20.44
2023-02-11T13:23:26.734Z,20.45
2023-02-11T13:24:26.740Z,20.42
2023-02-11T13:25:26.736Z,20.40
2023-02-11T13:26:26.748Z,20.43
2023-02-11T13:27:26.777Z,20.44
2023-02-11T13:28:26.934Z,20.46
2023-02-11T13:29:26.747Z,20.43
2023-02-11T13:30:26.952Z,20.44
2023-02-11T13:31:26.936Z,20.46
2023-02-11T13:32:26.774Z,20.43
2023-02-11T13:33:26.770Z,20.46
2023-02-11T13:34:26.773Z,20.46
2023-02-11T13:35:26.793Z,20.47
2023-02-11T13:36:26.811Z,20.44
2023-02-11T13:37:26.790Z,20.46
2023-02-11T13:38:26.799Z,20.44
2023-02-11T13:39:26.805Z,20.42
2023-02-11T13:40:26.801Z,20.45
2023-02-11T13:41:26.797Z,20.45
2023-02-11T13:42:26.802Z,20.45
2023-02-11T13:43:26.840Z,20.46
2023-02-11T13:44:26.814Z,20.47
2023-02-11T13:45:26.817Z,20.46
2023-02-11T13:46:26.880Z,20.46
2023-02-11T13:47:26.814Z,20.48
2023-02-11T13:48:27.513Z,20.49
2023-02-11T13:49:26.826Z,20.49
2023-02-11T13:50:26.832Z,20.51
2023-02-11T13:51:26.826Z,20.48
2023-02-11T13:52:26.874Z,20.48
2023-02-11T13:53:26.841Z,20.48
2023-02-11T13:54:26.868Z,20.46
2023-02-11T13:55:26.842Z,20.45
2023-02-11T13:56:26.852Z,20.47
2023-02-11T13:57:26.844Z,20.46
2023-02-11T13:58:26.847Z,20.46
2023-02-11T13:59:26.886Z,20.46
2023-02-11T14:00:26.851Z,20.49
2023-02-11T14:01:26.901Z,20.50
2023-02-11T14:02:26.882Z,20.48
2023-02-11T14:03:26.861Z,20.45
2023-02-11T14:04:26.864Z,20.47
2023-02-11T14:05:26.870Z,20.50
2023-02-11T14:06:26.868Z,20.48
2023-02-11T14:07:26.865Z,20.47
2023-02-11T14:08:26.866Z,20.48
2023-02-11T14:09:26.852Z,20.49
2023-02-11T14:10:26.855Z,20.48
2023-02-11T14:11:26.844Z,20.47
2023-02-11T14:12:26.839Z,20.46
2023-02-11T14:13:26.845Z,20.49
2023-02-11T14:14:26.870Z,20.48
2023-02-11T14:15:26.861Z,20.49
2023-02-11T14:16:37.557Z,20.46
2023-02-11T14:17:26.926Z,20.47
2023-02-11T14:18:26.838Z,20.49
2023-02-11T14:19:26.894Z,20.47
2023-02-11T14:20:26.841Z,20.52
2023-02-11T14:21:26.855Z,20.49
2023-02-11T14:22:26.834Z,20.52
2023-02-11T14:23:26.865Z,20.50
2023-02-11T14:24:26.837Z,20.50
2023-02-11T14:25:26.851Z,20.46
2023-02-11T14:26:26.840Z,20.49
2023-02-11T14:27:26.836Z,20.50
2023-02-11T14:28:26.984Z,20.51
2023-02-11T14:29:26.825Z,20.50
2023-02-11T14:30:26.826Z,20.48
2023-02-11T14:31:27.661Z,20.46
2023-02-11T14:32:26.834Z,20.44
2023-02-11T14:33:26.823Z,20.49
2023-02-11T14:34:27.757Z,20.49
2023-02-11T14:35:26.834Z,20.47
2023-02-11T14:36:26.818Z,20.49
2023-02-11T14:37:26.954Z,20.48
2023-02-11T14:38:26.825Z,20.50
2023-02-11T14:39:26.819Z,20.50
2023-02-11T14:40:26.825Z,20.51
2023-02-11T14:41:26.817Z,20.47
2023-02-11T14:42:26.824Z,20.49
2023-02-11T14:43:29.456Z,20.48
2023-02-11T14:44:26.821Z,20.50
2023-02-11T14:45:26.820Z,20.48
2023-02-11T14:46:26.844Z,20.49
2023-02-11T14:47:26.824Z,20.49
2023-02-11T14:48:26.802Z,20.47
2023-02-11T14:49:26.803Z,20.50
2023-02-11T14:50:26.795Z,20.49
2023-02-11T14:51:26.838Z,20.49
2023-02-11T14:52:26.798Z,20.47
2023-02-11T14:53:26.797Z,20.48
2023-02-11T14:54:26.806Z,20.45
2023-02-11T14:55:26.813Z,20.45
2023-02-11T14:56:26.807Z,20.46
2023-02-11T14:57:26.807Z,20.45
2023-02-11T14:58:26.826Z,20.47
2023-02-11T14:59:26.820Z,20.44
2023-02-11T15:00:26.896Z,20.44
2023-02-11T15:01:26.908Z,20.46
2023-02-11T15:02:26.823Z,20.44
2023-02-11T15:03:26.839Z,20.45
2023-02-11T15:04:26.808Z,20.45
2023-02-11T15:05:26.826Z,20.49
2023-02-11T15:06:26.953Z,20.46
2023-02-11T15:07:26.799Z,20.44
2023-02-11T15:08:26.794Z,20.50
2023-02-11T15:09:26.839Z,20.50
2023-02-11T15:10:26.789Z,20.52
2023-02-11T15:11:26.799Z,20.48
2023-02-11T15:12:26.788Z,20.46
2023-02-11T15:13:26.788Z,20.45
2023-02-11T15:14:26.778Z,20.47
2023-02-11T15:15:26.782Z,20.50
2023-02-11T15:16:26.782Z,20.52
2023-02-11T15:17:26.768Z,20.50
2023-02-11T15:18:26.773Z,20.49
2023-02-11T15:19:26.804Z,20.51
2023-02-11T15:20:26.760Z,20.50
2023-02-11T15:21:27.005Z,20.53
2023-02-11T15:22:26.768Z,20.48
2023-02-11T15:23:26.756Z,20.48
2023-02-11T15:24:26.786Z,20.49
2023-02-11T15:25:26.773Z,20.50
2023-02-11T15:26:26.755Z,20.51
2023-02-11T15:27:26.761Z,20.49
2023-02-11T15:28:26.827Z,20.49
2023-02-11T15:29:26.775Z,20.51
2023-02-11T15:30:26.762Z,20.49
2023-02-11T15:31:26.962Z,20.52
2023-02-11T15:32:26.974Z,20.48
2023-02-11T15:33:26.772Z,20.48
2023-02-11T15:34:26.771Z,20.47
2023-02-11T15:35:26.803Z,20.48
2023-02-11T15:36:26.749Z,20.46
2023-02-11T15:37:26.753Z,20.46
2023-02-11T15:38:26.773Z,20.45
2023-02-11T15:39:26.755Z,20.48
2023-02-11T15:40:26.744Z,20.48
2023-02-11T15:41:26.734Z,20.51
2023-02-11T15:42:26.759Z,20.50
2023-02-11T15:43:26.741Z,20.50
2023-02-11T15:44:26.733Z,20.49
2023-02-11T15:45:27.680Z,20.51
2023-02-11T15:46:26.759Z,20.48
2023-02-11T15:47:26.724Z,20.49
2023-02-11T15:48:26.725Z,20.51
2023-02-11T15:49:26.725Z,20.52
2023-02-11T15:50:26.717Z,20.50
2023-02-11T15:51:26.736Z,20.49
2023-02-11T15:52:26.709Z,20.47
2023-02-11T15:53:26.712Z,20.46
2023-02-11T15:54:26.724Z,20.45
2023-02-11T15:55:26.697Z,20.48
2023-02-11T15:56:26.743Z,20.50
2023-02-11T15:57:26.684Z,20.47
2023-02-11T15:58:26.712Z,20.49
2023-02-11T15:59:26.686Z,20.49
2023-02-11T16:00:26.704Z,20.49
2023-02-11T16:01:26.745Z,20.49
2023-02-11T16:02:26.679Z,20.49
2023-02-11T16:03:26.670Z,20.49
2023-02-11T16:04:26.735Z,20.50
2023-02-11T16:05:26.676Z,20.50
2023-02-11T16:06:26.672Z,20.48
2023-02-11T16:07:26.700Z,20.48
2023-02-11T16:08:26.675Z,20.49
2023-02-11T16:09:26.668Z,20.51
2023-02-11T16:10:26.656Z,20.50
2023-02-11T16:11:26.695Z,20.51
2023-02-11T16:12:26.663Z,20.54
2023-02-11T16:13:26.667Z,20.54
2023-02-11T16:14:26.677Z,20.48
2023-02-11T16:15:26.665Z,20.48
2023-02-11T16:16:26.703Z,20.52
2023-02-11T16:17:26.674Z,20.51
2023-02-11T16:18:37.415Z,20.52
2023-02-11T16:19:26.677Z,20.54
2023-02-11T16:20:26.698Z,20.55
2023-02-11T16:21:26.685Z,20.52
2023-02-11T16:22:26.680Z,20.52
2023-02-11T16:23:26.697Z,20.52
2023-02-11T16:24:26.685Z,20.53
2023-02-11T16:25:26.682Z,20.54
2023-02-11T16:26:27.534Z,20.55
2023-02-11T16:27:26.680Z,20.51
2023-02-11T16:28:26.774Z,20.48
2023-02-11T16:29:26.697Z,20.51
2023-02-11T16:30:26.733Z,20.49
2023-02-11T16:31:26.821Z,20.51
2023-02-11T16:32:26.685Z,20.49
2023-02-11T16:33:26.677Z,20.49
2023-02-11T16:35:26.688Z,20.52
2023-02-11T16:36:26.679Z,20.49
2023-02-11T16:37:26.680Z,20.49
2023-02-11T16:38:26.718Z,20.49
2023-02-11T16:39:26.699Z,20.48
2023-02-11T16:40:26.679Z,20.47
2023-02-11T16:41:26.677Z,20.47
2023-02-11T16:42:26.691Z,20.45
2023-02-11T16:43:26.681Z,20.47
2023-02-11T16:44:26.690Z,20.46
2023-02-11T16:45:26.682Z,20.49
2023-02-11T16:46:26.685Z,20.48
2023-02-11T16:47:26.699Z,20.48
2023-02-11T16:48:26.761Z,20.47
2023-02-11T16:49:26.693Z,20.48
2023-02-11T16:50:26.698Z,20.50
2023-02-11T16:51:26.703Z,20.49
2023-02-11T16:52:26.712Z,20.47
2023-02-11T16:53:26.692Z,20.45
2023-02-11T16:54:26.697Z,20.45
2023-02-11T16:55:26.733Z,20.46
2023-02-11T16:56:26.708Z,20.46
2023-02-11T16:57:29.653Z,20.44
2023-02-11T16:58:26.704Z,20.45
2023-02-11T16:59:26.706Z,20.43
2023-02-11T17:00:26.707Z,20.44
2023-02-11T17:01:26.804Z,20.45
2023-02-11T17:02:27.101Z,20.46
2023-02-11T17:03:29.776Z,20.44
2023-02-11T17:04:26.789Z,20.47
2023-02-11T17:05:26.711Z,20.47
2023-02-11T17:06:26.713Z,20.46
2023-02-11T17:07:26.705Z,20.43
2023-02-11T17:08:26.702Z,20.45
2023-02-11T17:09:30.054Z,20.45
2023-02-11T17:10:26.709Z,20.50
2023-02-11T17:11:26.728Z,20.48
2023-02-11T17:12:26.710Z,20.46
2023-02-11T17:13:26.725Z,20.45
2023-02-11T17:14:26.705Z,20.46
2023-02-11T17:15:26.707Z,20.45
2023-02-11T17:16:26.786Z,20.46
2023-02-11T17:17:26.721Z,20.46
2023-02-11T17:18:26.721Z,20.47
2023-02-11T17:19:26.732Z,20.44
2023-02-11T17:20:26.723Z,20.47
2023-02-11T17:21:29.833Z,20.47
2023-02-11T17:22:26.730Z,20.47
2023-02-11T17:23:26.726Z,20.43
2023-02-11T17:24:26.727Z,20.45
2023-02-11T17:25:26.723Z,20.44
2023-02-11T17:26:26.733Z,20.45
2023-02-11T17:27:26.735Z,20.46
2023-02-11T17:28:26.813Z,20.46
2023-02-11T17:29:26.715Z,20.45
2023-02-11T17:30:26.718Z,20.46
2023-02-11T17:31:26.821Z,20.46
2023-02-11T17:32:26.701Z,20.44
2023-02-11T17:33:26.702Z,20.44
2023-02-11T17:34:26.704Z,20.44
2023-02-11T17:35:26.697Z,20.45
2023-02-11T17:36:26.701Z,20.45
2023-02-11T17:37:26.717Z,20.45
2023-02-11T17:38:26.693Z,20.47
2023-02-11T17:39:26.731Z,20.45
2023-02-11T17:40:26.690Z,20.46
2023-02-11T17:41:26.720Z,20.42
2023-02-11T17:42:26.691Z,20.45
2023-02-11T17:43:26.706Z,20.43
2023-02-11T17:44:26.680Z,20.43
2023-02-11T17:45:27.156Z,20.43
2023-02-11T17:46:26.680Z,20.43
2023-02-11T17:47:26.671Z,20.45
2023-02-11T17:48:26.669Z,20.45
2023-02-11T17:49:26.667Z,20.44
2023-02-11T17:50:29.202Z,20.43
2023-02-11T17:51:26.673Z,20.43
2023-02-11T17:52:26.652Z,20.43
2023-02-11T17:53:26.653Z,20.43
2023-02-11T17:54:26.655Z,20.45
2023-02-11T17:55:26.657Z,20.43
2023-02-11T17:56:26.656Z,20.42
2023-02-11T17:57:26.659Z,20.43
2023-02-11T17:58:26.649Z,20.39
2023-02-11T17:59:26.670Z,20.44
2023-02-11T18:00:26.650Z,20.42
2023-02-11T18:01:26.787Z,20.41
2023-02-11T18:02:26.656Z,20.41
2023-02-11T18:03:26.653Z,20.44
2023-02-11T18:04:26.687Z,20.43
2023-02-11T18:05:26.662Z,20.43
2023-02-11T18:06:26.866Z,20.43
2023-02-11T18:07:26.681Z,20.42
2023-02-11T18:08:26.677Z,20.40
2023-02-11T18:09:26.688Z,20.42
2023-02-11T18:10:26.685Z,20.40
2023-02-11T18:11:26.690Z,20.39
2023-02-11T18:12:26.714Z,20.42
2023-02-11T18:13:26.689Z,20.40
2023-02-11T18:14:26.684Z,20.42
2023-02-11T18:15:26.709Z,20.42
2023-02-11T18:16:26.707Z,20.40
2023-02-11T18:17:26.693Z,20.43
2023-02-11T18:18:26.657Z,20.41
2023-02-11T18:19:26.659Z,20.41
2023-02-11T18:20:26.667Z,20.40
2023-02-11T18:21:26.647Z,20.39
2023-02-11T18:22:26.645Z,20.40
2023-02-11T18:23:26.640Z,20.40
2023-02-11T18:24:26.641Z,20.38
2023-02-11T18:25:26.644Z,20.40
2023-02-11T18:26:26.635Z,20.40
2023-02-11T18:27:26.632Z,20.36
2023-02-11T18:28:26.700Z,20.41
2023-02-11T18:29:26.651Z,20.39
2023-02-11T18:30:26.659Z,20.41
2023-02-11T18:31:26.744Z,20.38
2023-02-11T18:32:26.633Z,20.39
2023-02-11T18:33:26.640Z,20.39
2023-02-11T18:34:26.631Z,20.40
2023-02-11T18:35:26.702Z,20.39
2023-02-11T18:36:26.615Z,20.38
2023-02-11T18:37:26.608Z,20.41
2023-02-11T18:38:26.609Z,20.37
2023-02-11T18:39:26.611Z,20.38
2023-02-11T18:40:26.614Z,20.38
2023-02-11T18:41:26.604Z,20.39
2023-02-11T18:42:26.614Z,20.40
2023-02-11T18:43:26.592Z,20.41
2023-02-11T18:44:26.600Z,20.41
2023-02-11T18:45:26.585Z,20.41
2023-02-11T18:46:26.745Z,20.38
2023-02-11T18:47:26.603Z,20.35
2023-02-11T18:48:26.589Z,20.37
2023-02-11T18:49:26.579Z,20.37
2023-02-11T18:50:26.566Z,20.36
2023-02-11T18:51:26.568Z,20.39
2023-02-11T18:52:26.567Z,20.38
2023-02-11T18:53:26.558Z,20.37
2023-02-11T18:54:26.563Z,20.37
2023-02-11T18:55:26.557Z,20.37
2023-02-11T18:56:26.552Z,20.37
2023-02-11T18:57:26.555Z,20.38
2023-02-11T18:58:26.546Z,20.35
2023-02-11T18:59:26.535Z,20.38
2023-02-11T19:00:26.548Z,20.40
2023-02-11T19:01:26.573Z,20.39
2023-02-11T19:02:26.556Z,20.38
2023-02-11T19:03:26.561Z,20.38
2023-02-11T19:04:26.550Z,20.39
2023-02-11T19:05:26.532Z,20.39
2023-02-11T19:06:26.546Z,20.38
2023-02-11T19:07:26.564Z,20.39
2023-02-11T19:08:26.541Z,20.36
2023-02-11T19:09:26.531Z,20.36
2023-02-11T19:10:26.533Z,20.36
2023-02-11T19:11:26.531Z,20.36
2023-02-11T19:12:26.520Z,20.33
2023-02-11T19:13:26.523Z,20.34
2023-02-11T19:14:26.526Z,20.34
2023-02-11T19:15:26.524Z,20.37
2023-02-11T19:16:26.644Z,20.34
2023-02-11T19:17:26.522Z,20.35
2023-02-11T19:18:26.523Z,20.36
2023-02-11T19:19:26.546Z,20.34
2023-02-11T19:20:26.525Z,20.34
2023-02-11T19:21:26.541Z,20.34
2023-02-11T19:22:26.561Z,20.34
2023-02-11T19:23:26.521Z,20.34
2023-02-11T19:24:26.529Z,20.35
2023-02-11T19:25:26.522Z,20.37
2023-02-11T19:26:26.537Z,20.34
2023-02-11T19:27:26.557Z,20.34
2023-02-11T19:28:26.660Z,20.34
2023-02-11T19:29:26.693Z,20.35
2023-02-11T19:30:26.682Z,20.32
2023-02-11T19:31:26.918Z,20.30
2023-02-11T19:32:26.692Z,20.34
2023-02-11T19:33:26.689Z,20.32
2023-02-11T19:34:26.687Z,20.32
2023-02-11T19:35:26.702Z,20.36
2023-02-11T19:36:26.717Z,20.36
2023-02-11T19:37:26.714Z,20.35
2023-02-11T19:38:26.663Z,20.34
2023-02-11T19:39:26.663Z,20.32
2023-02-11T19:40:26.659Z,20.32
2023-02-11T19:41:26.660Z,20.34
2023-02-11T19:42:27.709Z,20.34
2023-02-11T19:43:26.657Z,20.33
2023-02-11T19:44:26.635Z,20.37
2023-02-11T19:45:26.630Z,20.32
2023-02-11T19:46:26.725Z,20.33
2023-02-11T19:47:26.618Z,20.33
2023-02-11T19:48:26.644Z,20.32
2023-02-11T19:49:26.663Z,20.34
2023-02-11T19:50:26.613Z,20.34
2023-02-11T19:51:26.636Z,20.34
2023-02-11T19:52:26.618Z,20.35
2023-02-11T19:53:26.623Z,20.35
2023-02-11T19:54:26.657Z,20.34
2023-02-11T19:55:26.623Z,20.33
2023-02-11T19:56:26.615Z,20.33
2023-02-11T19:57:26.624Z,20.31
2023-02-11T19:58:26.610Z,20.34
2023-02-11T19:59:26.608Z,20.35
2023-02-11T20:00:26.604Z,20.33
2023-02-11T20:01:26.670Z,20.34
2023-02-11T20:02:26.705Z,20.34
2023-02-11T20:03:26.611Z,20.34
2023-02-11T20:04:26.640Z,20.34
2023-02-11T20:05:26.605Z,20.31
2023-02-11T20:06:26.603Z,20.35
2023-02-11T20:07:26.622Z,20.34
2023-02-11T20:08:26.611Z,20.32
2023-02-11T20:09:26.634Z,20.32
2023-02-11T20:10:26.599Z,20.31
2023-02-11T20:11:26.602Z,20.36
2023-02-11T20:12:26.595Z,20.33
2023-02-11T20:13:26.589Z,20.32
2023-02-11T20:14:28.000Z,20.34
2023-02-11T20:15:26.732Z,20.31
2023-02-11T20:16:37.099Z,20.32
2023-02-11T20:17:26.712Z,20.35
2023-02-11T20:18:26.707Z,20.36
2023-02-11T20:19:26.715Z,20.33
2023-02-11T20:20:26.731Z,20.32
2023-02-11T20:21:26.699Z,20.32
2023-02-11T20:22:26.694Z,20.36
2023-02-11T20:23:26.727Z,20.31
2023-02-11T20:24:26.692Z,20.32
2023-02-11T20:25:26.693Z,20.33
2023-02-11T20:26:26.697Z,20.32
2023-02-11T20:27:26.708Z,20.32
2023-02-11T20:28:26.722Z,20.33
2023-02-11T20:29:26.690Z,20.32
2023-02-11T20:30:26.682Z,20.33
2023-02-11T20:31:27.378Z,20.32
2023-02-11T20:32:26.769Z,20.32
2023-02-11T20:33:26.706Z,20.31
2023-02-11T20:34:26.667Z,20.34
2023-02-11T20:35:26.683Z,20.32
2023-02-11T20:36:26.672Z,20.32
2023-02-11T20:37:26.686Z,20.32
2023-02-11T20:38:26.676Z,20.31
2023-02-11T20:39:26.692Z,20.32
2023-02-11T20:40:26.670Z,20.32
2023-02-11T20:41:26.677Z,20.33
2023-02-11T20:42:26.689Z,20.33
2023-02-11T20:43:26.678Z,20.34
2023-02-11T20:44:26.678Z,20.36
2023-02-11T20:45:26.675Z,20.34
2023-02-11T20:46:26.771Z,20.34
2023-02-11T20:47:27.610Z,20.33
2023-02-11T20:48:26.679Z,20.31
2023-02-11T20:49:26.680Z,20.36
2023-02-11T20:50:26.699Z,20.37
2023-02-11T20:51:26.721Z,20.36
2023-02-11T20:52:26.687Z,20.32
2023-02-11T20:53:26.692Z,20.37
2023-02-11T20:54:26.693Z,20.36
2023-02-11T20:55:26.705Z,20.34
2023-02-11T20:56:26.708Z,20.35
2023-02-11T20:57:26.685Z,20.35
2023-02-11T20:58:26.731Z,20.35
2023-02-11T20:59:26.692Z,20.34
2023-02-11T21:00:26.677Z,20.34
2023-02-11T21:01:26.690Z,20.37
2023-02-11T21:02:26.675Z,20.37
2023-02-11T21:03:26.762Z,20.35
2023-02-11T21:04:26.678Z,20.35
2023-02-11T21:05:26.661Z,20.34
2023-02-11T21:06:26.665Z,20.34
2023-02-11T21:07:26.649Z,20.34
2023-02-11T21:08:26.643Z,20.32
2023-02-11T21:09:26.646Z,20.32
2023-02-11T21:10:26.636Z,20.34
2023-02-11T21:11:26.656Z,20.34
2023-02-11T21:12:26.625Z,20.33
2023-02-11T21:13:26.673Z,20.36
2023-02-11T21:14:26.623Z,20.36
2023-02-11T21:15:26.616Z,20.34
2023-02-11T21:16:26.725Z,20.35
2023-02-11T21:17:26.636Z,20.36
2023-02-11T21:18:26.686Z,20.36
2023-02-11T21:19:26.607Z,20.35
2023-02-11T21:20:26.610Z,20.36
2023-02-11T21:21:26.603Z,20.36
2023-02-11T21:22:26.594Z,20.37
2023-02-11T21:23:26.628Z,20.34
2023-02-11T21:24:26.591Z,20.33
2023-02-11T21:25:26.602Z,20.34
2023-02-11T21:26:26.598Z,20.35
2023-02-11T21:27:26.624Z,20.36
2023-02-11T21:28:26.760Z,20.36
2023-02-11T21:29:26.609Z,20.35
2023-02-11T21:30:26.605Z,20.36
2023-02-11T21:31:26.798Z,20.35
2023-02-11T21:32:26.607Z,20.36
2023-02-11T21:33:26.624Z,20.36
2023-02-11T21:34:26.663Z,20.36
2023-02-11T21:35:26.623Z,20.36
2023-02-11T21:36:26.610Z,20.36
2023-02-11T21:37:26.617Z,20.36
2023-02-11T21:38:26.613Z,20.37
2023-02-11T21:39:26.610Z,20.32
2023-02-11T21:40:26.607Z,20.34
2023-02-11T21:41:26.613Z,20.35
2023-02-11T21:42:26.617Z,20.34
2023-02-11T21:43:26.720Z,20.37
2023-02-11T21:44:26.607Z,20.37
2023-02-11T21:45:26.605Z,20.36
2023-02-11T21:46:26.783Z,20.36
2023-02-11T21:47:26.606Z,20.36
2023-02-11T21:48:26.611Z,20.35
2023-02-11T21:49:26.598Z,20.34
2023-02-11T21:50:26.589Z,20.36
2023-02-11T21:51:26.627Z,20.37
2023-02-11T21:52:26.585Z,20.38
2023-02-11T21:53:26.572Z,20.35
2023-02-11T21:54:26.561Z,20.35
2023-02-11T21:55:26.570Z,20.35
2023-02-11T21:56:26.580Z,20.32
2023-02-11T21:57:26.581Z,20.36
2023-02-11T21:58:26.574Z,20.33
2023-02-11T21:59:26.594Z,20.33
2023-02-11T22:00:26.595Z,20.36
2023-02-11T22:01:26.586Z,20.32
2023-02-11T22:02:26.578Z,20.33
2023-02-11T22:03:26.572Z,20.35
2023-02-11T22:04:26.649Z,20.36